createdAt,value
2022-08-18T00:01:15.920Z,45.76
2022-08-18T00:03:56.487Z,45.41
2022-08-18T00:06:29.306Z,45.97
2022-08-18T00:09:00.965Z,45.61
2022-08-18T00:11:40.682Z,45.50
2022-08-18T00:14:14.586Z,45.53
2022-08-18T00:16:50.217Z,45.45
2022-08-18T00:19:17.102Z,45.66
2022-08-18T00:21:43.956Z,45.95
2022-08-18T00:24:10.878Z,45.69
2022-08-18T00:26:37.775Z,46.04
2022-08-18T00:29:04.673Z,45.58
2022-08-18T00:31:31.818Z,45.67
2022-08-18T00:33:58.791Z,45.63
2022-08-18T00:36:25.626Z,45.70
2022-08-18T00:38:52.918Z,45.82
2022-08-18T00:41:21.178Z,46.06
2022-08-18T00:43:50.277Z,46.03
2022-08-18T00:46:29.747Z,46.58
2022-08-18T00:48:57.890Z,45.92
2022-08-18T00:51:33.164Z,45.92
2022-08-18T00:54:22.511Z,46.17
2022-08-18T00:56:56.822Z,46.63
2022-08-18T00:59:30.090Z,46.49
2022-08-18T01:02:00.026Z,46.47
2022-08-18T01:04:44.039Z,46.91
2022-08-18T01:07:18.316Z,46.93
2022-08-18T01:09:45.094Z,46.75
2022-08-18T01:12:43.979Z,46.80
2022-08-18T01:15:00.153Z,47.02
2022-08-18T01:17:27.590Z,47.28
2022-08-18T01:19:55.431Z,47.03
2022-08-18T01:23:04.545Z,47.39
2022-08-18T01:25:32.518Z,47.22
2022-08-18T01:28:00.782Z,47.23
2022-08-18T01:30:28.383Z,47.58
2022-08-18T01:32:55.252Z,47.72
2022-08-18T01:35:24.368Z,47.62
2022-08-18T01:37:54.844Z,47.35
2022-08-18T01:41:23.889Z,47.78
2022-08-18T01:43:12.370Z,47.63
2022-08-18T01:45:40.083Z,47.32
2022-08-18T01:48:07.208Z,47.64
2022-08-18T01:50:34.393Z,47.95
2022-08-18T01:53:01.904Z,47.96
2022-08-18T01:55:28.731Z,48.22
2022-08-18T01:57:56.230Z,48.19
2022-08-18T02:00:23.151Z,47.76
2022-08-18T02:02:57.897Z,48.00
2022-08-18T02:05:41.209Z,47.63
2022-08-18T02:08:09.004Z,48.56
2022-08-18T02:10:36.925Z,48.08
2022-08-18T02:13:03.920Z,48.00
2022-08-18T02:15:31.100Z,48.07
2022-08-18T02:17:58.104Z,48.35
2022-08-18T02:20:25.700Z,47.99
2022-08-18T02:22:52.602Z,47.84
2022-08-18T02:25:19.888Z,48.13
2022-08-18T02:27:46.916Z,48.39
2022-08-18T02:30:17.302Z,48.43
2022-08-18T02:32:44.180Z,48.51
2022-08-18T02:35:12.108Z,48.46
2022-08-18T02:37:42.185Z,48.39
2022-08-18T02:40:10.529Z,48.70
2022-08-18T02:42:42.042Z,48.70
2022-08-18T02:45:09.668Z,48.70
2022-08-18T02:47:36.712Z,48.73
2022-08-18T02:50:04.104Z,49.20
2022-08-18T02:52:30.949Z,48.81
2022-08-18T06:50:00.504Z,38.13
2022-08-18T06:52:39.396Z,38.41
2022-08-18T06:55:18.414Z,38.46
2022-08-18T06:57:57.625Z,38.16
2022-08-18T07:00:31.413Z,37.48
2022-08-18T07:03:13.154Z,37.61
2022-08-18T07:05:56.573Z,37.12
2022-08-18T07:08:33.247Z,37.86
2022-08-18T07:11:27.441Z,37.64
2022-08-18T07:14:16.475Z,36.29
2022-08-18T07:16:58.364Z,36.28
2022-08-18T07:19:30.257Z,36.75
2022-08-18T07:22:13.234Z,36.27
2022-08-18T07:24:50.537Z,36.80
2022-08-18T07:27:20.341Z,36.46
2022-08-18T07:29:59.183Z,36.91
2022-08-18T07:32:33.143Z,36.74
2022-08-18T07:35:03.298Z,36.83
2022-08-18T07:37:40.153Z,36.88
2022-08-18T07:40:07.477Z,36.20
2022-08-18T07:43:00.455Z,36.98
2022-08-18T07:45:45.038Z,36.27
2022-08-18T07:48:40.630Z,35.29
2022-08-18T07:51:20.300Z,34.77
2022-08-18T07:54:13.180Z,34.52
2022-08-18T07:57:04.261Z,34.34
2022-08-18T08:00:05.466Z,34.30
2022-08-18T08:02:50.520Z,34.09
2022-08-18T08:05:40.289Z,33.72
2022-08-18T08:08:29.191Z,33.32
2022-08-18T08:11:27.616Z,33.79
2022-08-18T08:14:00.371Z,33.68
2022-08-18T08:17:01.008Z,33.31
2022-08-18T08:20:02.338Z,33.44
2022-08-18T08:22:38.948Z,32.72
2022-08-18T08:25:42.957Z,32.68
2022-08-18T08:28:12.124Z,32.72
2022-08-18T08:31:09.043Z,32.51
2022-08-18T08:33:52.631Z,32.22
2022-08-18T08:36:27.821Z,32.86
2022-08-18T08:39:02.193Z,32.07
2022-08-18T08:41:38.262Z,31.77
2022-08-18T08:44:35.280Z,31.44
2022-08-18T08:47:13.420Z,31.39
2022-08-18T08:50:09.241Z,30.71
2022-08-18T08:52:42.826Z,31.29
2022-08-18T08:55:33.039Z,31.28
2022-08-18T08:58:25.358Z,30.95
2022-08-18T09:00:54.127Z,31.12
2022-08-18T09:03:32.721Z,30.55
2022-08-18T09:06:11.788Z,30.86
2022-08-18T09:09:16.138Z,30.39
2022-08-18T09:12:18.455Z,29.93
2022-08-18T09:15:13.404Z,29.86
2022-08-18T09:18:02.284Z,29.97
2022-08-18T09:20:48.555Z,29.30
2022-08-18T09:23:39.393Z,29.24
2022-08-18T09:26:39.336Z,29.03
2022-08-18T09:29:18.290Z,28.31
2022-08-18T09:31:46.681Z,28.41
2022-08-18T09:34:45.936Z,27.74
2022-08-18T09:37:16.736Z,28.78
2022-08-18T09:39:56.618Z,28.63
2022-08-18T09:42:32.065Z,28.46
2022-08-18T09:45:02.850Z,28.64
2022-08-18T09:47:31.096Z,28.36
2022-08-18T09:50:33.852Z,29.38
2022-08-18T09:53:33.633Z,28.65
2022-08-18T09:56:04.886Z,28.75
2022-08-18T09:58:47.656Z,28.32
2022-08-18T10:01:31.887Z,28.26
2022-08-18T10:04:14.394Z,28.46
2022-08-18T10:06:48.347Z,28.23
2022-08-18T10:09:38.530Z,28.83
2022-08-18T10:12:27.279Z,28.13
2022-08-18T10:15:51.552Z,28.01
2022-08-18T10:18:39.682Z,28.06
2022-08-18T10:21:17.783Z,28.05
2022-08-18T10:24:02.892Z,28.07
2022-08-18T10:26:37.749Z,27.97
2022-08-18T10:29:09.403Z,28.18
2022-08-18T10:31:55.052Z,28.54
2022-08-18T10:34:51.914Z,28.46
2022-08-18T10:37:39.295Z,27.58
2022-08-18T10:40:13.209Z,27.56
2022-08-18T10:42:45.679Z,27.06
2022-08-18T10:45:30.461Z,27.28
2022-08-18T10:48:00.432Z,27.31
2022-08-18T10:50:29.930Z,27.57
2022-08-18T10:53:40.542Z,27.97
2022-08-18T10:56:33.799Z,28.24
2022-08-18T10:59:50.742Z,27.98
2022-08-18T11:02:39.429Z,27.55
2022-08-18T11:05:08.830Z,27.73
2022-08-18T11:07:36.767Z,27.88
2022-08-18T11:13:32.958Z,27.96
2022-08-18T11:16:18.354Z,27.64
2022-08-18T11:18:49.135Z,27.60
2022-08-18T11:21:42.088Z,27.86
2022-08-18T11:24:21.591Z,28.22
2022-08-18T11:29:41.546Z,28.24
2022-08-18T11:32:30.075Z,28.13
2022-08-18T11:34:59.467Z,27.39
2022-08-18T11:37:49.828Z,26.95
2022-08-18T11:40:52.056Z,26.90
2022-08-18T11:43:39.142Z,27.42
2022-08-18T11:46:37.087Z,27.53
2022-08-18T11:49:24.012Z,27.15
2022-08-18T11:52:03.179Z,26.52
2022-08-18T11:54:51.011Z,26.73
2022-08-18T11:57:50.037Z,26.95
2022-08-18T12:01:01.368Z,27.13
2022-08-18T12:03:45.723Z,27.51
2022-08-18T12:06:33.127Z,27.33
2022-08-18T12:09:09.716Z,26.99
2022-08-18T12:12:04.252Z,27.45
2022-08-18T12:14:50.306Z,27.30
2022-08-18T12:17:19.143Z,27.15
2022-08-18T12:19:47.802Z,27.41
2022-08-18T12:22:22.863Z,27.33
2022-08-18T12:24:51.115Z,27.05
2022-08-18T12:27:23.112Z,27.35
2022-08-18T12:29:53.073Z,27.39
2022-08-18T12:32:49.070Z,26.97
2022-08-18T12:35:12.667Z,27.37
2022-08-18T12:37:59.089Z,26.96
2022-08-18T12:40:27.780Z,25.72
2022-08-18T12:42:55.658Z,25.87
2022-08-18T12:45:23.311Z,26.42
2022-08-18T12:47:52.685Z,26.02
2022-08-18T12:50:19.788Z,26.42
2022-08-18T12:52:46.826Z,25.72
2022-08-18T12:55:21.911Z,25.68
2022-08-18T12:57:52.138Z,25.65
2022-08-18T13:00:21.045Z,25.25
2022-08-18T13:02:56.295Z,24.55
2022-08-18T13:05:26.385Z,24.72
2022-08-18T13:08:04.443Z,24.62
2022-08-18T13:10:35.546Z,24.15
2022-08-18T13:13:12.568Z,24.77
2022-08-18T13:15:39.521Z,24.23
2022-08-18T13:18:28.974Z,24.86
2022-08-18T13:20:58.478Z,24.83
2022-08-18T13:23:26.187Z,24.58
2022-08-18T13:26:01.420Z,24.79
2022-08-18T13:28:36.161Z,25.24
2022-08-18T13:31:23.451Z,25.17
2022-08-18T13:33:57.140Z,25.82
2022-08-18T13:36:29.215Z,25.48
2022-08-18T13:38:56.244Z,25.32
2022-08-18T13:43:52.343Z,25.50
2022-08-18T13:46:24.267Z,25.80
2022-08-18T13:48:58.289Z,25.54
2022-08-18T13:51:25.375Z,25.44
2022-08-18T13:54:06.643Z,26.00
2022-08-18T13:56:39.729Z,25.76
2022-08-18T13:59:06.906Z,25.40
2022-08-18T14:01:44.187Z,25.54
2022-08-18T14:04:20.180Z,25.83
2022-08-18T14:06:51.107Z,25.97
2022-08-18T14:09:27.912Z,26.08
2022-08-18T14:12:05.298Z,26.07
2022-08-18T14:14:32.397Z,26.14
2022-08-18T14:17:00.650Z,26.15
2022-08-18T14:19:28.351Z,26.10
2022-08-18T14:21:55.715Z,25.82
2022-08-18T14:24:24.999Z,26.44
2022-08-18T14:26:52.033Z,26.42
2022-08-18T14:29:46.929Z,26.23
2022-08-18T14:32:07.587Z,26.22
2022-08-18T14:34:34.582Z,26.56
2022-08-18T14:37:02.977Z,26.38
2022-08-18T14:39:29.954Z,26.71
2022-08-18T14:41:56.901Z,26.54
2022-08-18T14:44:25.488Z,26.18
2022-08-18T14:46:59.010Z,25.99
2022-08-18T14:49:28.780Z,26.08
2022-08-18T14:51:58.277Z,26.27
2022-08-18T14:54:28.383Z,26.72
2022-08-18T14:56:56.184Z,26.60
2022-08-18T14:59:23.208Z,26.65
2022-08-18T15:01:51.417Z,26.68
2022-08-18T15:04:19.629Z,26.88
2022-08-18T15:06:56.279Z,26.55
2022-08-18T15:09:27.754Z,26.79
2022-08-18T15:11:59.431Z,26.70
2022-08-18T15:14:33.225Z,26.72
2022-08-18T15:17:12.000Z,26.80
2022-08-18T15:20:00.468Z,26.91
2022-08-18T15:22:27.939Z,26.86
2022-08-18T15:24:54.916Z,27.21
2022-08-18T15:27:43.131Z,26.92
2022-08-18T15:30:13.660Z,26.10
2022-08-18T15:32:50.279Z,24.78
2022-08-18T15:35:19.452Z,25.91
2022-08-18T15:37:51.179Z,26.29
2022-08-18T15:40:35.573Z,25.68
2022-08-18T15:43:09.823Z,26.13
2022-08-18T15:45:56.104Z,25.96
2022-08-18T15:48:26.642Z,25.12
2022-08-18T15:50:53.715Z,25.00
2022-08-18T15:53:24.402Z,24.90
2022-08-18T15:55:51.823Z,24.98
2022-08-18T15:58:22.455Z,25.25
2022-08-18T16:00:53.540Z,25.11
2022-08-18T16:03:20.544Z,25.21
2022-08-18T16:05:53.436Z,25.23
2022-08-18T16:08:23.148Z,25.36
2022-08-18T16:10:50.238Z,25.39
2022-08-18T16:13:17.711Z,25.35
2022-08-18T16:15:45.621Z,25.73
2022-08-18T16:18:13.166Z,26.00
2022-08-18T16:20:40.640Z,26.50
2022-08-18T16:23:07.898Z,26.30
2022-08-18T16:25:37.577Z,26.63
2022-08-18T16:28:04.852Z,27.29
2022-08-18T16:30:31.858Z,27.44
2022-08-18T16:33:01.927Z,27.51
2022-08-18T16:35:29.717Z,27.59
2022-08-18T16:37:57.186Z,27.80
2022-08-18T16:40:24.034Z,27.73
2022-08-18T16:42:54.988Z,28.28
2022-08-18T16:45:22.233Z,28.61
2022-08-18T16:47:49.112Z,28.76
2022-08-18T16:50:17.294Z,28.31
2022-08-18T16:52:44.320Z,28.97
2022-08-18T16:55:12.751Z,29.20
2022-08-18T16:57:53.429Z,29.14
2022-08-18T17:00:23.589Z,29.40
2022-08-18T17:02:50.532Z,29.47
2022-08-18T17:05:17.406Z,29.59
2022-08-18T17:07:44.537Z,29.89
2022-08-18T17:10:11.608Z,29.79
2022-08-18T17:12:38.461Z,30.00
2022-08-18T17:15:05.879Z,30.24
2022-08-18T17:17:32.700Z,30.28
2022-08-18T17:19:59.510Z,30.30
2022-08-18T17:22:26.473Z,30.61
2022-08-18T17:24:59.766Z,30.50
2022-08-18T17:27:36.084Z,30.47
2022-08-18T17:30:14.820Z,30.85
2022-08-18T17:32:57.540Z,31.18
2022-08-18T17:35:34.467Z,31.13
2022-08-18T17:38:07.339Z,31.15
2022-08-18T17:40:43.732Z,31.57
2022-08-18T17:43:16.025Z,31.76
2022-08-18T17:45:45.176Z,31.63
2022-08-18T17:48:17.958Z,31.99
2022-08-18T17:50:48.507Z,32.02
2022-08-18T17:53:16.766Z,32.48
2022-08-18T17:55:49.965Z,32.45
2022-08-18T17:58:28.286Z,32.97
2022-08-18T18:00:55.317Z,33.13
2022-08-18T18:03:22.123Z,33.30
2022-08-18T18:06:10.063Z,33.46
2022-08-18T18:08:56.145Z,33.43
2022-08-18T18:11:49.247Z,33.80
2022-08-18T18:14:28.957Z,33.88
2022-08-18T18:17:07.239Z,34.35
2022-08-18T18:19:35.774Z,34.60
2022-08-18T18:22:09.302Z,35.16
2022-08-18T18:24:39.068Z,35.01
2022-08-18T18:27:24.620Z,35.27
2022-08-18T18:29:59.930Z,35.54
2022-08-18T18:32:48.871Z,35.65
2022-08-18T18:35:34.148Z,35.25
2022-08-18T18:38:22.842Z,35.70
2022-08-18T18:41:06.456Z,36.03
2022-08-18T18:43:41.726Z,36.20
2022-08-18T18:46:47.858Z,35.88
2022-08-18T18:49:14.732Z,36.35
2022-08-18T18:51:59.608Z,36.28
2022-08-18T18:54:26.365Z,36.57
2022-08-18T18:56:56.095Z,36.89
2022-08-18T18:59:44.438Z,36.73
2022-08-18T19:02:32.999Z,36.69
2022-08-18T19:05:12.805Z,36.76
2022-08-18T19:08:08.691Z,37.29
2022-08-18T19:10:37.048Z,37.24
2022-08-18T19:13:32.585Z,37.07
2022-08-18T19:16:09.250Z,37.32
2022-08-18T19:18:44.725Z,37.05
2022-08-18T19:22:04.168Z,38.23
2022-08-18T19:24:23.033Z,38.28
2022-08-18T19:26:53.854Z,38.05
2022-08-18T19:29:25.342Z,38.07
2022-08-18T19:32:16.210Z,37.65
2022-08-18T19:34:51.578Z,37.79
2022-08-18T19:37:35.037Z,37.88
2022-08-18T19:40:11.974Z,37.96
2022-08-18T19:42:48.645Z,37.82
2022-08-18T19:45:49.080Z,38.09
2022-08-18T19:48:27.844Z,38.64
2022-08-18T19:51:10.929Z,38.29
2022-08-18T19:54:06.772Z,38.71
2022-08-18T19:56:39.407Z,38.61
2022-08-18T19:59:24.208Z,38.75
2022-08-18T20:02:17.320Z,38.36
2022-08-18T20:05:08.655Z,38.24
2022-08-18T20:08:15.155Z,38.51
2022-08-18T20:11:17.496Z,38.99
2022-08-18T20:13:45.978Z,38.92
2022-08-18T20:16:15.074Z,39.26
2022-08-18T20:18:50.307Z,39.02
2022-08-18T20:21:17.094Z,39.04
2022-08-18T20:24:07.487Z,39.09
2022-08-18T20:26:37.113Z,38.84
2022-08-18T20:29:08.642Z,38.97
2022-08-18T20:32:02.301Z,38.94
2022-08-18T20:34:35.504Z,39.16
2022-08-18T20:37:20.618Z,39.12
2022-08-18T20:39:51.880Z,39.36
2022-08-18T20:42:21.672Z,39.68
2022-08-18T20:44:55.533Z,39.20
2022-08-18T20:47:54.712Z,39.40
2022-08-18T20:50:43.534Z,39.24
2022-08-18T20:53:39.459Z,38.90
2022-08-18T20:56:31.400Z,39.04
2022-08-18T20:59:12.545Z,39.23
2022-08-18T21:01:40.133Z,38.65
2022-08-18T21:04:08.008Z,38.56
2022-08-18T21:06:42.774Z,38.46
2022-08-18T21:09:16.745Z,38.54
2022-08-18T21:11:47.480Z,38.32
2022-08-18T21:14:24.777Z,38.87
2022-08-18T21:16:57.297Z,38.53
2022-08-18T21:19:29.403Z,38.46
2022-08-18T21:22:01.951Z,38.65
2022-08-18T21:24:28.721Z,38.75
2022-08-18T21:27:03.596Z,38.72
2022-08-18T21:29:44.257Z,38.93
2022-08-18T21:32:29.800Z,39.07
2022-08-18T21:34:56.654Z,39.17
2022-08-18T21:37:23.763Z,39.33
2022-08-18T21:40:01.768Z,39.24
2022-08-18T21:42:39.813Z,39.09
2022-08-18T21:45:13.671Z,39.43
2022-08-18T21:47:48.897Z,39.28
2022-08-18T21:50:25.379Z,39.72
2022-08-18T21:53:00.716Z,39.93
2022-08-18T21:55:38.406Z,39.95
2022-08-18T21:58:05.208Z,39.49
2022-08-18T22:00:34.179Z,39.88
2022-08-18T22:03:16.420Z,40.38
2022-08-18T22:05:58.165Z,40.24
2022-08-18T22:08:31.076Z,40.19
2022-08-18T22:11:21.769Z,40.23
2022-08-18T22:14:35.759Z,40.27
2022-08-18T22:17:26.814Z,40.35
2022-08-18T22:19:53.941Z,40.40
2022-08-18T22:22:22.840Z,40.86
2022-08-18T22:24:55.569Z,40.56
2022-08-18T22:27:25.482Z,41.04
2022-08-18T22:29:59.297Z,41.16
2022-08-18T22:32:26.122Z,41.60
2022-08-18T22:34:52.941Z,41.42
2022-08-18T22:37:22.828Z,41.43
2022-08-18T22:39:59.917Z,41.43
2022-08-18T22:42:29.969Z,41.50
2022-08-18T22:45:01.402Z,41.98
2022-08-18T22:47:31.536Z,41.84
2022-08-18T22:50:10.719Z,41.73
2022-08-18T22:52:42.302Z,41.82
2022-08-18T22:55:11.398Z,41.88
2022-08-18T22:57:39.761Z,42.17
2022-08-18T23:00:14.893Z,42.26
2022-08-18T23:02:42.517Z,42.21
2022-08-18T23:05:10.217Z,41.92
2022-08-18T23:07:37.339Z,42.28
2022-08-18T23:10:08.360Z,42.34
2022-08-18T23:12:41.861Z,42.25
2022-08-18T23:15:08.997Z,42.29
2022-08-18T23:17:35.998Z,42.25
2022-08-18T23:20:03.188Z,42.14
2022-08-18T23:22:30.038Z,42.16
2022-08-18T23:24:56.935Z,42.10
2022-08-18T23:27:23.850Z,42.14
2022-08-18T23:29:51.118Z,41.91
2022-08-18T23:32:18.088Z,41.81
2022-08-18T23:34:45.058Z,41.78
2022-08-18T23:37:11.931Z,41.93
2022-08-18T23:39:38.865Z,42.12
2022-08-18T23:42:07.689Z,42.21
2022-08-18T23:44:34.517Z,42.45
2022-08-18T23:47:01.313Z,42.44
2022-08-18T23:49:30.462Z,42.21
2022-08-18T23:51:58.539Z,42.45
2022-08-18T23:54:28.729Z,42.19
2022-08-18T23:56:56.007Z,42.42
2022-08-18T23:59:24.974Z,42.24
